Plymouth Township, Ohio
Current Conditions -  °F | °C
As of 4:01 PM on Thursday 23 Oct 2014 (Local Time) from KHZY Reporting Station
Scattered Clouds Scattered Clouds  
Wind Chill: 56°   Ceiling: Unl
Heat Index: 56°   Visibility: 10mi
Dew Point: 44°   Wind: 10mph
Humidity: 64%   Direction: 320°NW
Pressure: 30.12"   Gusts: NA
Location:  41.8515°N, 80.79°W
Report Text: KHZY 232001Z AUTO 32009KT 10SM SCT024 13/07 A3012 RMK AO2 T01330067
Loading
Personal Weather Stations






























Interactive Weather Map
Tropical Storm Tracking
New forecast layout! Learn more

10-Day Weather Forecast

Advertisements
Track Severe Weather on mobile